createdAt,value
2022-11-05T00:02:53.048Z,97437.93
2022-11-05T00:08:16.120Z,97447.98
2022-11-05T00:13:37.761Z,97456.36
2022-11-05T00:18:42.250Z,97455.67
2022-11-05T00:24:04.139Z,97459.83
2022-11-05T00:29:08.718Z,97470.77
2022-11-05T00:34:13.371Z,97476.41
2022-11-05T00:39:18.000Z,97482.08
2022-11-05T00:44:40.429Z,97484.02
2022-11-05T00:49:44.689Z,97486.81
2022-11-05T00:54:48.920Z,97493.63
2022-11-05T00:59:52.789Z,97495.59
2022-11-05T01:04:57.069Z,97495.77
2022-11-05T01:10:01.269Z,97489.95
2022-11-05T01:15:06.373Z,97497.95
2022-11-05T01:20:11.839Z,97498.64
2022-11-05T01:25:16.159Z,97497.14
2022-11-05T01:30:21.199Z,97497.25
2022-11-05T01:35:25.559Z,97505.06
2022-11-05T01:40:29.739Z,97511.63
2022-11-05T01:45:35.189Z,97513.71
2022-11-05T01:50:42.299Z,97514.53
2022-11-05T01:55:50.059Z,97524.69
2022-11-05T02:00:55.231Z,97534.48
2022-11-05T02:06:00.511Z,97544.48
2022-11-05T02:11:05.929Z,97553.21
2022-11-05T02:16:14.889Z,97552.60
2022-11-05T02:21:38.119Z,97573.09
2022-11-05T02:27:02.411Z,97583.80
2022-11-05T02:32:14.120Z,97591.44
2022-11-05T02:37:24.479Z,97596.86
2022-11-05T02:42:34.360Z,97599.36
2022-11-05T02:47:42.177Z,97600.04
2022-11-05T02:52:51.159Z,97605.09
2022-11-05T02:57:55.359Z,97602.95
2022-11-05T03:02:59.663Z,97604.27
2022-11-05T03:08:08.511Z,97617.23
2022-11-05T03:13:17.970Z,97616.92
2022-11-05T03:18:26.449Z,97627.91
2022-11-05T03:23:34.319Z,97634.15
2022-11-05T03:28:40.519Z,97632.78
2022-11-05T03:33:46.136Z,97642.30
2022-11-05T03:38:52.651Z,97649.02
2022-11-05T03:43:58.889Z,97642.52
2022-11-05T03:49:03.909Z,97658.64
2022-11-05T03:54:08.751Z,97666.35
2022-11-05T03:59:13.620Z,97667.75
2022-11-05T04:04:17.699Z,97663.55
2022-11-05T04:09:40.169Z,97671.68
2022-11-05T04:14:45.069Z,97682.91
2022-11-05T04:20:07.578Z,97692.80
2022-11-05T04:25:12.149Z,97689.67
2022-11-05T04:30:20.321Z,97683.55
2022-11-05T04:35:25.008Z,97688.64
2022-11-05T04:40:30.022Z,97692.31
2022-11-05T04:45:34.959Z,97690.32
2022-11-05T04:50:39.460Z,97694.41
2022-11-05T04:55:43.678Z,97707.63
2022-11-05T05:00:49.648Z,97705.30
2022-11-05T05:05:54.236Z,97702.48
2022-11-05T05:11:02.648Z,97712.58
2022-11-05T05:16:08.050Z,97714.27
2022-11-05T05:21:30.399Z,97719.38
2022-11-05T05:26:35.072Z,97727.03
2022-11-05T05:31:39.713Z,97734.95
2022-11-05T05:36:43.920Z,97733.95
2022-11-05T05:41:47.919Z,97737.20
2022-11-05T05:46:54.009Z,97740.48
2022-11-05T05:51:58.353Z,97764.42
2022-11-05T05:57:03.647Z,97767.13
2022-11-05T06:02:08.541Z,97773.86
2022-11-05T06:07:13.009Z,97776.67
2022-11-05T06:12:17.312Z,97776.09
2022-11-05T06:17:21.664Z,97791.04
2022-11-05T06:22:26.231Z,97800.36
2022-11-05T06:27:30.549Z,97809.51
2022-11-05T06:32:34.890Z,97822.29
2022-11-05T06:37:38.989Z,97840.23
2022-11-05T06:42:43.197Z,97840.98
2022-11-05T06:47:47.308Z,97849.95
2022-11-05T06:52:54.659Z,97870.74
2022-11-05T06:57:58.922Z,97886.17
2022-11-05T07:03:06.699Z,97892.50
2022-11-05T07:08:11.169Z,97898.17
2022-11-05T07:13:16.031Z,97899.95
2022-11-05T07:18:20.578Z,97907.20
2022-11-05T07:23:25.179Z,97914.83
2022-11-05T07:28:29.128Z,97919.25
2022-11-05T07:33:36.568Z,97926.58
2022-11-05T07:38:40.989Z,97929.12
2022-11-05T07:43:45.480Z,97935.85
2022-11-05T07:48:49.809Z,97941.64
2022-11-05T07:53:54.279Z,97944.89
2022-11-05T07:58:58.588Z,97950.19
2022-11-05T08:04:02.849Z,97949.59
2022-11-05T08:09:07.079Z,97949.56
2022-11-05T08:14:11.491Z,97948.76
2022-11-05T08:19:15.749Z,97946.39
2022-11-05T08:24:20.077Z,97946.91
2022-11-05T08:29:24.950Z,97957.19
2022-11-05T08:34:29.250Z,97957.06
2022-11-05T08:39:33.706Z,97970.23
2022-11-05T08:44:38.129Z,97977.89
2022-11-05T08:49:42.519Z,97985.45
2022-11-05T08:54:46.905Z,97988.89
2022-11-05T08:59:51.129Z,97995.39
2022-11-05T09:04:55.288Z,98000.70
2022-11-05T09:09:59.440Z,97996.30
2022-11-05T09:15:04.118Z,98001.06
2022-11-05T09:20:11.639Z,97996.27
2022-11-05T09:25:16.287Z,97997.27
2022-11-05T09:30:20.818Z,98000.08
2022-11-05T09:35:25.438Z,98002.41
2022-11-05T09:40:32.699Z,98011.52
2022-11-05T09:45:37.041Z,98017.00
2022-11-05T09:50:43.952Z,98022.65
2022-11-05T09:55:48.921Z,98026.20
2022-11-05T10:00:53.803Z,98026.17
2022-11-05T10:06:04.465Z,98027.90
2022-11-05T10:11:10.201Z,98035.86
2022-11-05T10:16:24.490Z,98045.79
2022-11-05T10:21:59.601Z,98046.17
2022-11-05T10:26:54.060Z,98043.86
2022-11-05T10:31:59.081Z,98047.65
2022-11-05T10:37:03.643Z,98057.74
2022-11-05T10:42:11.872Z,98062.27
2022-11-05T10:47:26.580Z,98060.98
2022-11-05T10:52:33.704Z,98057.50
2022-11-05T10:57:38.881Z,98059.08
2022-11-05T11:02:43.304Z,98057.90
2022-11-05T11:07:53.055Z,98058.81
2022-11-05T11:12:57.670Z,98076.08
2022-11-05T11:18:22.241Z,98077.02
2022-11-05T11:23:26.531Z,98078.14
2022-11-05T11:28:32.886Z,98080.07
2022-11-05T11:33:38.264Z,98077.16
2022-11-05T11:38:43.438Z,98087.42
2022-11-05T11:43:47.941Z,98093.36
2022-11-05T11:48:52.360Z,98096.86
2022-11-05T11:53:58.486Z,98094.88
2022-11-05T11:59:09.967Z,98098.95
2022-11-05T12:04:26.039Z,98098.99
2022-11-05T12:09:34.099Z,98102.52
2022-11-05T12:14:46.570Z,98105.40
2022-11-05T12:20:12.971Z,98106.17
2022-11-05T12:25:27.921Z,98124.59
2022-11-05T12:30:38.191Z,98130.22
2022-11-05T12:35:49.912Z,98128.08
2022-11-05T12:41:01.441Z,98130.91
2022-11-05T12:46:13.821Z,98136.54
2022-11-05T12:51:22.963Z,98144.21
2022-11-05T12:56:31.023Z,98148.85
2022-11-05T13:01:36.788Z,98151.82
2022-11-05T13:06:43.269Z,98152.84
2022-11-05T13:11:49.022Z,98157.73
2022-11-05T13:16:54.982Z,98158.38
2022-11-05T13:22:00.882Z,98173.98
2022-11-05T13:27:13.495Z,98196.69
2022-11-05T13:32:23.049Z,98196.84
2022-11-05T13:37:52.262Z,98205.39
2022-11-05T13:43:06.433Z,98213.38
2022-11-05T13:48:36.560Z,98215.82
2022-11-05T13:53:54.513Z,98216.23
2022-11-05T13:59:06.021Z,98214.52
2022-11-05T14:04:16.229Z,98215.76
2022-11-05T14:09:26.013Z,98216.38
2022-11-05T14:14:31.223Z,98220.44
2022-11-05T14:19:36.881Z,98228.99
2022-11-05T14:24:42.726Z,98240.24
2022-11-05T14:29:47.425Z,98265.02
2022-11-05T14:34:55.462Z,98274.41
2022-11-05T14:40:01.991Z,98288.83
2022-11-05T14:45:25.473Z,98286.92
2022-11-05T14:50:35.174Z,98290.76
2022-11-05T14:55:40.649Z,98301.17
2022-11-05T15:00:48.979Z,98307.93
2022-11-05T15:06:04.421Z,98304.84
2022-11-05T15:11:11.891Z,98314.04
2022-11-05T15:16:20.260Z,98318.34
2022-11-05T15:21:25.302Z,98327.16
2022-11-05T15:26:32.850Z,98336.52
2022-11-05T15:31:39.194Z,98337.02
2022-11-05T15:36:46.491Z,98346.54
2022-11-05T15:41:50.759Z,98350.34
2022-11-05T15:47:12.274Z,98358.93
2022-11-05T15:52:17.571Z,98361.34
2022-11-05T15:57:24.610Z,98370.06
2022-11-05T16:02:31.265Z,98368.77
2022-11-05T16:07:36.128Z,98367.71
2022-11-05T16:12:40.214Z,98376.92
2022-11-05T16:17:48.354Z,98376.73
2022-11-05T16:22:53.929Z,98382.18
2022-11-05T16:27:58.471Z,98382.15
2022-11-05T16:33:06.800Z,98388.19
2022-11-05T16:38:13.269Z,98389.50
2022-11-05T16:43:20.520Z,98396.48
2022-11-05T16:48:25.057Z,98407.02
2022-11-05T16:53:29.622Z,98419.96
2022-11-05T16:58:33.995Z,98426.59
2022-11-05T17:03:38.181Z,98430.70
2022-11-05T17:08:44.115Z,98435.55
2022-11-05T17:13:49.061Z,98435.98
2022-11-05T17:18:53.442Z,98438.08
2022-11-05T17:23:57.980Z,98440.13
2022-11-05T17:29:02.274Z,98438.35
2022-11-05T17:34:06.766Z,98439.44
2022-11-05T17:39:11.711Z,98439.94
2022-11-05T17:44:16.493Z,98436.29
2022-11-05T17:49:21.075Z,98437.64
2022-11-05T17:54:25.677Z,98439.52
2022-11-05T17:59:30.301Z,98450.59
2022-11-05T18:04:34.560Z,98457.36
2022-11-05T18:09:39.031Z,98459.21
2022-11-05T18:14:43.782Z,98468.40
2022-11-05T18:19:48.301Z,98475.27
2022-11-05T18:24:52.696Z,98471.77
2022-11-05T18:29:56.881Z,98472.95
2022-11-05T18:35:01.409Z,98488.26
2022-11-05T18:40:06.454Z,98492.66
2022-11-05T18:45:11.992Z,98483.50
2022-11-05T18:50:16.186Z,98480.46
2022-11-05T18:55:21.074Z,98490.01
2022-11-05T19:00:25.653Z,98499.11
2022-11-05T19:05:30.435Z,98506.40
2022-11-05T19:10:34.998Z,98518.36
2022-11-05T19:15:42.235Z,98518.52
2022-11-05T19:20:46.673Z,98519.67
2022-11-05T19:25:51.122Z,98529.30
2022-11-05T19:30:55.755Z,98536.52
2022-11-05T19:36:00.033Z,98545.91
2022-11-05T19:41:07.716Z,98553.48
2022-11-05T19:46:13.001Z,98560.88
2022-11-05T19:51:17.911Z,98565.81
2022-11-05T19:56:22.936Z,98569.90
2022-11-05T20:01:28.094Z,98583.10
2022-11-05T20:06:33.561Z,98582.70
2022-11-05T20:11:39.082Z,98581.77
2022-11-05T20:16:43.669Z,98589.06
2022-11-05T20:21:48.142Z,98602.92
2022-11-05T20:26:52.561Z,98601.94
2022-11-05T20:31:57.801Z,98608.20
2022-11-05T20:37:02.851Z,98613.59
2022-11-05T20:42:07.233Z,98611.16
2022-11-05T20:47:11.523Z,98613.58
2022-11-05T20:52:17.163Z,98614.77
2022-11-05T20:57:22.082Z,98627.59
2022-11-05T21:02:26.664Z,98633.95
2022-11-05T21:07:30.994Z,98637.88
2022-11-05T21:12:35.383Z,98641.46
2022-11-05T21:17:39.692Z,98647.42
2022-11-05T21:22:45.157Z,98648.80
2022-11-05T21:27:49.614Z,98642.30
2022-11-05T21:32:53.772Z,98639.14
2022-11-05T21:37:58.453Z,98643.02
2022-11-05T21:43:02.920Z,98642.84
2022-11-05T21:48:07.612Z,98641.98
2022-11-05T21:53:31.211Z,98638.80
2022-11-05T21:58:53.371Z,98643.13
2022-11-05T22:04:02.804Z,98643.95
2022-11-05T22:09:08.042Z,98641.69
2022-11-05T22:14:12.642Z,98650.06
2022-11-05T22:19:17.094Z,98649.89
2022-11-05T22:24:21.761Z,98649.38
2022-11-05T22:29:26.271Z,98647.46
2022-11-05T22:34:30.601Z,98652.92
2022-11-05T22:39:34.921Z,98649.35
2022-11-05T22:44:39.410Z,98653.02
2022-11-05T22:49:43.740Z,98648.10
2022-11-05T22:54:48.351Z,98647.67
2022-11-05T22:59:52.526Z,98650.80
2022-11-05T23:04:56.995Z,98651.61
2022-11-05T23:10:19.242Z,98650.58
2022-11-05T23:15:41.902Z,98655.04
2022-11-05T23:21:04.467Z,98662.65
2022-11-05T23:26:23.544Z,98658.64
2022-11-05T23:31:46.101Z,98658.83
2022-11-05T23:37:08.974Z,98662.30
2022-11-05T23:42:30.302Z,98664.59
2022-11-05T23:47:52.661Z,98673.86
2022-11-05T23:52:57.420Z,98678.23
2022-11-05T23:58:01.992Z,98675.08
